Time;durP1;ratioP1;P1;durP2;ratioP2;P2;SDS_P1;SDS_P2;PMS_P1;PMS_P2;Temp;Humidity;BMP_temperature;BMP_pressure;BME280_temperature;BME280_humidity;BME280_pressure;Samples;Min_cycle;Max_cycle;Signal;HPM_P1;HPM_P2
2024/01/01 00:02:27;;;;;;;18.83;11.65;;;;;;;;;;5024644;28;20053;-73
2024/01/01 00:04:56;;;;;;;17.50;11.38;;;;;;;;;;5021650;28;20026;-72
2024/01/01 00:07:23;;;;;;;23.48;14.82;;;;;;;;;;5024170;28;20113;-72
2024/01/01 00:09:49;;;;;;;29.13;18.42;;;;;;;;;;5021750;28;20419;-73
2024/01/01 00:12:17;;;;;;;30.45;18.23;;;;;;;;;;5023809;28;20022;-73
2024/01/01 00:14:44;;;;;;;30.17;21.77;;;;;;;;;;5017472;28;20574;-73
2024/01/01 00:17:13;;;;;;;36.85;29.10;;;;;;;;;;5026760;28;20057;-72
2024/01/01 00:19:41;;;;;;;35.83;28.05;;;;;;;;;;5020426;28;20033;-72
2024/01/01 00:22:08;;;;;;;34.53;28.02;;;;;;;;;;5023969;28;20037;-72
2024/01/01 00:24:36;;;;;;;35.15;26.48;;;;;;;;;;5035736;28;20036;-72
2024/01/01 00:27:03;;;;;;;29.92;22.10;;;;;;;;;;5024007;28;20786;-72
2024/01/01 00:29:31;;;;;;;30.65;18.98;;;;;;;;;;5028307;28;20456;-72
2024/01/01 00:31:58;;;;;;;25.58;18.80;;;;;;;;;;5020769;28;20025;-73
2024/01/01 00:34:26;;;;;;;27.50;21.98;;;;;;;;;;5025991;28;20112;-73
2024/01/01 00:36:52;;;;;;;34.55;25.17;;;;;;;;;;5023335;28;20025;-73
2024/01/01 00:39:20;;;;;;;31.70;23.20;;;;;;;;;;5010546;28;20169;-73
2024/01/01 00:41:47;;;;;;;27.38;20.95;;;;;;;;;;5004083;28;20141;-73
2024/01/01 00:44:14;;;;;;;29.42;21.65;;;;;;;;;;5006143;28;20424;-74
2024/01/01 00:46:42;;;;;;;28.60;22.48;;;;;;;;;;5002933;28;20171;-74
2024/01/01 00:49:10;;;;;;;30.52;22.90;;;;;;;;;;5005294;28;20033;-73
2024/01/01 00:51:38;;;;;;;28.10;22.95;;;;;;;;;;5000000;28;20037;-73
2024/01/01 00:54:06;;;;;;;32.78;22.02;;;;;;;;;;5009144;28;20112;-73
2024/01/01 00:56:33;;;;;;;28.90;21.80;;;;;;;;;;5006264;28;20109;-73
2024/01/01 00:59:01;;;;;;;26.85;19.23;;;;;;;;;;5005214;28;20025;-73
2024/01/01 01:01:28;;;;;;;27.45;19.70;;;;;;;;;;5008980;28;20510;-73
2024/01/01 01:03:56;;;;;;;21.67;15.85;;;;;;;;;;5005975;28;20471;-73
2024/01/01 01:06:23;;;;;;;32.25;24.42;;;;;;;;;;5005706;28;20084;-73
2024/01/01 01:08:51;;;;;;;42.58;31.65;;;;;;;;;;5001984;28;20571;-74
2024/01/01 01:11:18;;;;;;;38.42;28.77;;;;;;;;;;5008297;28;20069;-73
2024/01/01 01:13:48;;;;;;;33.60;22.17;;;;;;;;;;5005700;28;20037;-71
2024/01/01 01:16:17;;;;;;;31.92;20.65;;;;;;;;;;5006115;28;20033;-72
2024/01/01 01:18:44;;;;;;;31.52;19.80;;;;;;;;;;5004327;28;20032;-73
2024/01/01 01:21:13;;;;;;;30.50;21.30;;;;;;;;;;5007982;28;20040;-72
2024/01/01 01:23:40;;;;;;;32.22;20.90;;;;;;;;;;5019508;28;20527;-72
2024/01/01 01:26:07;;;;;;;30.50;19.65;;;;;;;;;;5006928;28;20545;-73
2024/01/01 01:28:34;;;;;;;27.80;18.27;;;;;;;;;;5004818;28;20176;-73
2024/01/01 01:31:04;;;;;;;33.90;18.83;;;;;;;;;;5001323;28;20030;-73
2024/01/01 01:33:31;;;;;;;28.42;18.45;;;;;;;;;;5003174;28;20030;-72
2024/01/01 01:36:00;;;;;;;28.75;19.23;;;;;;;;;;5005621;28;20042;-72
2024/01/01 01:38:29;;;;;;;29.90;19.23;;;;;;;;;;5004132;28;20127;-72
2024/01/01 01:40:58;;;;;;;28.70;19.90;;;;;;;;;;5005792;28;20041;-72
2024/01/01 01:43:25;;;;;;;32.33;20.00;;;;;;;;;;5005952;28;20029;-73
2024/01/01 01:45:53;;;;;;;31.98;21.05;;;;;;;;;;5001633;28;20492;-73
2024/01/01 01:48:21;;;;;;;25.67;19.23;;;;;;;;;;5004190;28;20117;-73
2024/01/01 01:50:50;;;;;;;31.80;21.40;;;;;;;;;;5005032;28;20037;-74
2024/01/01 01:53:23;;;;;;;31.35;22.85;;;;;;;;;;5009113;28;20750;-73
2024/01/01 01:55:51;;;;;;;36.47;24.38;;;;;;;;;;5004381;28;20160;-73
2024/01/01 01:58:19;;;;;;;30.00;21.73;;;;;;;;;;5004655;28;20034;-73
2024/01/01 02:00:50;;;;;;;35.67;25.90;;;;;;;;;;5001870;28;20124;-73
2024/01/01 02:03:18;;;;;;;34.20;26.08;;;;;;;;;;5011530;28;20026;-74
2024/01/01 02:05:46;;;;;;;33.85;25.95;;;;;;;;;;5003979;28;20028;-73
2024/01/01 02:08:14;;;;;;;33.28;23.45;;;;;;;;;;5009326;28;20022;-73
2024/01/01 02:10:41;;;;;;;32.30;22.25;;;;;;;;;;5010738;28;20144;-73
2024/01/01 02:13:29;;;;;;;33.00;21.15;;;;;;;;;;5011512;28;20116;-73
2024/01/01 02:15:56;;;;;;;26.27;19.70;;;;;;;;;;5011767;28;20724;-73
2024/01/01 02:18:25;;;;;;;28.88;19.30;;;;;;;;;;5012226;28;20041;-73
2024/01/01 02:20:51;;;;;;;26.58;19.33;;;;;;;;;;5011414;28;20153;-73
2024/01/01 02:23:18;;;;;;;25.52;17.92;;;;;;;;;;5009713;28;20038;-73
2024/01/01 02:25:46;;;;;;;23.23;16.73;;;;;;;;;;5009734;28;20034;-73
2024/01/01 02:28:14;;;;;;;21.45;14.98;;;;;;;;;;5027730;28;20036;-75
2024/01/01 02:30:41;;;;;;;24.13;15.38;;;;;;;;;;5012845;28;20550;-73
2024/01/01 02:33:09;;;;;;;22.35;15.05;;;;;;;;;;5018225;28;20044;-72
2024/01/01 02:35:37;;;;;;;22.08;14.02;;;;;;;;;;5006028;28;20472;-72
2024/01/01 02:38:04;;;;;;;21.88;13.30;;;;;;;;;;5008222;28;20524;-74
2024/01/01 02:40:34;;;;;;;18.23;11.88;;;;;;;;;;5002934;28;20048;-72
2024/01/01 02:43:02;;;;;;;19.85;11.80;;;;;;;;;;5011115;28;20630;-74
2024/01/01 02:45:30;;;;;;;17.55;12.40;;;;;;;;;;5010440;28;20041;-73
2024/01/01 02:47:58;;;;;;;20.27;12.50;;;;;;;;;;5008072;28;20079;-74
2024/01/01 02:50:25;;;;;;;18.40;12.32;;;;;;;;;;5018236;28;20021;-73
2024/01/01 02:52:53;;;;;;;19.95;13.90;;;;;;;;;;5004439;28;20033;-73
2024/01/01 02:55:20;;;;;;;23.45;15.85;;;;;;;;;;5013241;28;20136;-72
2024/01/01 02:57:48;;;;;;;22.27;15.65;;;;;;;;;;5006968;28;20115;-72
2024/01/01 03:00:15;;;;;;;23.38;16.15;;;;;;;;;;5009963;28;20114;-72
2024/01/01 03:02:43;;;;;;;22.30;14.93;;;;;;;;;;5019517;28;20069;-74
2024/01/01 03:05:12;;;;;;;23.27;14.18;;;;;;;;;;5013682;28;20055;-74
2024/01/01 03:07:39;;;;;;;21.38;15.05;;;;;;;;;;5004276;28;20041;-72
2024/01/01 03:10:05;;;;;;;21.35;14.85;;;;;;;;;;5013914;28;20150;-71
2024/01/01 03:12:33;;;;;;;20.45;13.48;;;;;;;;;;5011162;28;21728;-72
2024/01/01 03:15:02;;;;;;;19.95;13.15;;;;;;;;;;5008911;28;20116;-74
2024/01/01 03:17:30;;;;;;;18.80;12.80;;;;;;;;;;5008524;28;20037;-72
2024/01/01 03:19:56;;;;;;;17.75;11.80;;;;;;;;;;5000148;28;21350;-73
2024/01/01 03:22:23;;;;;;;17.30;10.27;;;;;;;;;;5004658;28;20033;-72
2024/01/01 03:24:49;;;;;;;22.40;13.35;;;;;;;;;;5004014;28;20029;-73
2024/01/01 03:27:18;;;;;;;17.88;10.43;;;;;;;;;;5010583;28;20034;-73
2024/01/01 03:29:46;;;;;;;16.10;8.25;;;;;;;;;;5005612;28;20057;-73
2024/01/01 03:32:13;;;;;;;16.40;8.10;;;;;;;;;;5009344;28;20045;-72
2024/01/01 03:34:40;;;;;;;12.13;6.47;;;;;;;;;;5012498;28;20037;-73
2024/01/01 03:37:08;;;;;;;14.13;5.88;;;;;;;;;;5025382;28;20048;-73
2024/01/01 03:39:35;;;;;;;13.73;6.13;;;;;;;;;;5009111;28;20022;-73
2024/01/01 03:42:03;;;;;;;12.02;6.50;;;;;;;;;;5008539;28;20034;-73
2024/01/01 03:44:30;;;;;;;13.77;6.95;;;;;;;;;;5009271;28;21083;-73
2024/01/01 03:46:57;;;;;;;16.20;7.50;;;;;;;;;;5001410;28;20116;-72
2024/01/01 03:49:24;;;;;;;13.00;7.25;;;;;;;;;;5013281;28;20029;-75
2024/01/01 03:51:52;;;;;;;12.98;7.13;;;;;;;;;;5003102;28;20029;-74
2024/01/01 03:54:19;;;;;;;13.93;8.13;;;;;;;;;;5010830;28;20124;-72
2024/01/01 03:56:47;;;;;;;20.88;12.20;;;;;;;;;;5002795;28;20072;-72
2024/01/01 03:59:15;;;;;;;18.20;12.38;;;;;;;;;;5009740;28;20037;-72
2024/01/01 04:01:42;;;;;;;17.20;11.73;;;;;;;;;;5005262;28;20106;-74
2024/01/01 04:04:09;;;;;;;17.58;10.45;;;;;;;;;;5010883;28;20796;-73
2024/01/01 04:06:37;;;;;;;15.68;8.70;;;;;;;;;;5008489;28;20021;-73
2024/01/01 04:09:05;;;;;;;14.48;8.38;;;;;;;;;;5003435;28;20523;-73
2024/01/01 04:11:33;;;;;;;15.18;8.40;;;;;;;;;;5012365;28;20116;-73
2024/01/01 04:14:02;;;;;;;14.63;7.78;;;;;;;;;;5008049;28;20140;-73
2024/01/01 04:16:30;;;;;;;14.93;6.68;;;;;;;;;;5013186;28;20032;-73
2024/01/01 04:18:57;;;;;;;11.63;4.85;;;;;;;;;;5007678;28;20053;-73
2024/01/01 04:21:24;;;;;;;10.13;4.40;;;;;;;;;;5012766;28;20110;-74
2024/01/01 04:23:54;;;;;;;11.23;4.82;;;;;;;;;;5010816;28;20030;-73
2024/01/01 04:26:21;;;;;;;11.57;5.22;;;;;;;;;;5011754;28;20049;-73
2024/01/01 04:31:14;;;;;;;11.93;5.40;;;;;;;;;;5005733;28;20038;-73
2024/01/01 04:33:41;;;;;;;12.07;6.38;;;;;;;;;;5006142;28;20088;-73
2024/01/01 04:36:09;;;;;;;12.30;6.22;;;;;;;;;;5009239;28;20041;-74
2024/01/01 04:38:38;;;;;;;12.52;6.15;;;;;;;;;;5008093;28;20118;-72
2024/01/01 04:41:05;;;;;;;12.82;5.65;;;;;;;;;;5008504;28;20121;-73
2024/01/01 04:43:33;;;;;;;12.48;5.53;;;;;;;;;;5012841;28;20034;-72
2024/01/01 04:46:00;;;;;;;12.35;5.35;;;;;;;;;;5007977;28;20058;-72
2024/01/01 04:48:27;;;;;;;12.45;5.00;;;;;;;;;;5001742;28;20033;-73
2024/01/01 04:50:55;;;;;;;11.23;4.53;;;;;;;;;;5017943;28;20562;-71
2024/01/01 04:53:22;;;;;;;11.52;4.38;;;;;;;;;;5008289;28;20045;-72
2024/01/01 04:55:49;;;;;;;11.82;4.55;;;;;;;;;;5005668;28;20033;-73
2024/01/01 04:58:17;;;;;;;11.80;4.60;;;;;;;;;;5005748;28;20041;-74
2024/01/01 05:00:44;;;;;;;16.45;4.80;;;;;;;;;;5003134;28;20029;-73
2024/01/01 05:03:12;;;;;;;12.13;4.25;;;;;;;;;;5010052;28;20136;-73
2024/01/01 05:05:39;;;;;;;10.52;4.85;;;;;;;;;;5005371;28;21266;-73
2024/01/01 05:08:07;;;;;;;12.02;5.20;;;;;;;;;;5003052;28;20161;-73
2024/01/01 05:10:34;;;;;;;12.07;5.18;;;;;;;;;;5005142;28;20029;-73
2024/01/01 05:13:01;;;;;;;13.27;5.45;;;;;;;;;;5005382;28;20098;-74
2024/01/01 05:15:29;;;;;;;12.57;5.78;;;;;;;;;;5002485;28;20030;-74
2024/01/01 05:17:57;;;;;;;13.57;6.18;;;;;;;;;;5007456;28;20042;-75
2024/01/01 05:20:25;;;;;;;14.35;6.30;;;;;;;;;;5008014;28;20038;-73
2024/01/01 05:22:52;;;;;;;17.25;7.13;;;;;;;;;;5006034;28;20033;-72
2024/01/01 05:25:20;;;;;;;15.32;6.80;;;;;;;;;;5002139;28;20117;-73
2024/01/01 05:27:47;;;;;;;15.55;7.35;;;;;;;;;;5005278;28;20022;-72
2024/01/01 05:30:14;;;;;;;13.60;6.18;;;;;;;;;;4999144;28;20683;-73
2024/01/01 05:32:42;;;;;;;16.67;6.40;;;;;;;;;;5005747;28;20059;-73
2024/01/01 05:35:09;;;;;;;14.38;6.03;;;;;;;;;;5006316;28;20029;-74
2024/01/01 05:37:37;;;;;;;13.65;5.90;;;;;;;;;;5010591;28;20029;-72
2024/01/01 05:40:04;;;;;;;13.23;6.22;;;;;;;;;;5012272;28;20045;-73
2024/01/01 05:42:32;;;;;;;14.63;5.15;;;;;;;;;;5011088;28;20112;-72
2024/01/01 05:44:59;;;;;;;16.83;6.63;;;;;;;;;;5008363;28;20033;-72
2024/01/01 05:47:27;;;;;;;16.67;6.32;;;;;;;;;;5029011;28;20025;-73
2024/01/01 05:49:54;;;;;;;19.17;6.43;;;;;;;;;;5012776;28;20091;-73
2024/01/01 05:52:22;;;;;;;14.35;6.15;;;;;;;;;;5014539;28;20033;-73
2024/01/01 05:54:50;;;;;;;16.88;6.95;;;;;;;;;;5010697;28;20047;-73
2024/01/01 05:57:17;;;;;;;16.77;7.95;;;;;;;;;;5009507;28;20758;-73
2024/01/01 05:59:46;;;;;;;19.88;8.00;;;;;;;;;;5011282;28;20039;-73
2024/01/01 06:02:13;;;;;;;17.70;7.97;;;;;;;;;;5009976;28;20125;-73
2024/01/01 06:04:40;;;;;;;16.58;9.02;;;;;;;;;;5010988;28;20036;-73
2024/01/01 06:07:07;;;;;;;17.27;8.57;;;;;;;;;;5009344;28;20024;-73
2024/01/01 06:09:34;;;;;;;15.82;8.55;;;;;;;;;;5006646;28;20041;-72
2024/01/01 06:12:02;;;;;;;17.38;9.10;;;;;;;;;;5015448;28;20753;-75
2024/01/01 06:14:30;;;;;;;15.30;7.90;;;;;;;;;;5024763;28;20095;-72
2024/01/01 06:16:57;;;;;;;17.35;7.70;;;;;;;;;;5008106;28;20022;-73
2024/01/01 06:19:25;;;;;;;15.40;6.65;;;;;;;;;;5017754;28;20052;-73
2024/01/01 06:21:52;;;;;;;14.93;6.25;;;;;;;;;;5025481;28;20488;-73
2024/01/01 06:24:19;;;;;;;16.05;6.13;;;;;;;;;;5011163;28;20244;-73
2024/01/01 06:26:47;;;;;;;15.20;5.90;;;;;;;;;;5007821;28;20041;-73
2024/01/01 06:29:13;;;;;;;14.30;5.40;;;;;;;;;;5006720;28;20528;-73
2024/01/01 06:31:41;;;;;;;;;;;;;;;;;;5006301;28;20037;-73
2024/01/01 06:34:08;;;;;;;16.10;4.90;;;;;;;;;;5010325;28;20424;-73
2024/01/01 06:36:36;;;;;;;12.48;4.40;;;;;;;;;;5032797;28;20116;-73
2024/01/01 06:39:03;;;;;;;15.68;4.25;;;;;;;;;;5015768;28;20029;-73
2024/01/01 06:41:31;;;;;;;16.90;4.47;;;;;;;;;;5008309;28;20025;-73
2024/01/01 06:43:58;;;;;;;16.50;4.78;;;;;;;;;;5006902;28;20025;-73
2024/01/01 06:46:26;;;;;;;13.82;4.88;;;;;;;;;;5007263;28;20030;-75
2024/01/01 06:48:53;;;;;;;14.57;4.57;;;;;;;;;;5009608;28;20034;-73
2024/01/01 06:51:21;;;;;;;15.05;4.63;;;;;;;;;;5005382;28;20026;-73
2024/01/01 06:53:48;;;;;;;13.00;3.90;;;;;;;;;;5008381;28;20044;-73
2024/01/01 06:56:14;;;;;;;15.35;4.47;;;;;;;;;;5012142;28;20031;-73
2024/01/01 06:58:42;;;;;;;16.88;4.80;;;;;;;;;;5007933;28;20030;-72
2024/01/01 07:01:09;;;;;;;17.17;4.72;;;;;;;;;;5014534;28;20099;-72
2024/01/01 07:03:39;;;;;;;15.57;4.47;;;;;;;;;;5007175;28;20076;-72
2024/01/01 07:06:05;;;;;;;17.38;4.70;;;;;;;;;;5007618;28;20024;-72
2024/01/01 07:08:32;;;;;;;13.38;3.95;;;;;;;;;;5005677;28;20467;-72
2024/01/01 07:10:59;;;;;;;11.80;4.10;;;;;;;;;;5010538;28;20104;-72
2024/01/01 07:13:26;;;;;;;16.08;4.47;;;;;;;;;;5008415;28;20045;-72
2024/01/01 07:15:53;;;;;;;15.52;4.78;;;;;;;;;;4999119;28;20052;-72
2024/01/01 07:18:21;;;;;;;15.82;4.85;;;;;;;;;;5009285;28;20060;-72
2024/01/01 07:20:50;;;;;;;15.57;4.78;;;;;;;;;;5002781;28;20034;-72
2024/01/01 07:23:19;;;;;;;15.73;4.70;;;;;;;;;;5010986;28;20032;-73
2024/01/01 07:25:46;;;;;;;19.50;6.70;;;;;;;;;;5006421;28;20117;-72
2024/01/01 07:28:15;;;;;;;18.45;7.60;;;;;;;;;;5010308;28;20032;-72
2024/01/01 07:30:42;;;;;;;18.48;7.85;;;;;;;;;;5002509;28;20050;-72
2024/01/01 07:33:10;;;;;;;21.67;10.40;;;;;;;;;;5007715;28;20037;-71
2024/01/01 07:35:37;;;;;;;22.40;11.35;;;;;;;;;;5005336;28;20029;-73
2024/01/01 07:38:05;;;;;;;21.60;11.15;;;;;;;;;;5006829;28;20120;-73
2024/01/01 07:40:32;;;;;;;21.95;10.65;;;;;;;;;;5008330;28;20037;-73
2024/01/01 07:43:00;;;;;;;18.05;9.50;;;;;;;;;;5011796;28;20566;-73
2024/01/01 07:45:26;;;;;;;19.88;8.60;;;;;;;;;;5001721;28;20021;-74
2024/01/01 07:47:54;;;;;;;18.65;8.65;;;;;;;;;;5001815;28;20168;-72
2024/01/01 07:50:21;;;;;;;21.83;9.82;;;;;;;;;;5005559;28;20064;-73
2024/01/01 07:52:49;;;;;;;24.00;11.73;;;;;;;;;;5008785;28;20557;-72
2024/01/01 07:55:18;;;;;;;19.80;10.48;;;;;;;;;;5011919;28;20026;-72
2024/01/01 07:57:49;;;;;;;19.83;9.73;;;;;;;;;;5008510;28;20033;-72
2024/01/01 08:00:19;;;;;;;18.67;8.68;;;;;;;;;;5012848;28;20111;-73
2024/01/01 08:02:46;;;;;;;21.73;8.02;;;;;;;;;;5008931;28;20025;-72
2024/01/01 08:05:15;;;;;;;15.25;6.85;;;;;;;;;;5014234;28;20558;-72
2024/01/01 08:07:47;;;;;;;16.13;5.78;;;;;;;;;;5016175;28;20548;-74
2024/01/01 08:10:16;;;;;;;18.38;4.88;;;;;;;;;;5004231;28;20657;-73
2024/01/01 08:12:43;;;;;;;17.48;4.70;;;;;;;;;;5002185;28;20857;-72
2024/01/01 08:15:11;;;;;;;17.08;5.10;;;;;;;;;;5013087;28;20096;-73
2024/01/01 08:17:38;;;;;;;17.50;5.53;;;;;;;;;;5011639;28;20451;-73
2024/01/01 08:20:06;;;;;;;16.80;6.30;;;;;;;;;;5010916;28;20034;-73
2024/01/01 08:22:33;;;;;;;17.98;6.40;;;;;;;;;;5006915;28;20038;-73
2024/01/01 08:25:01;;;;;;;17.20;6.28;;;;;;;;;;5026962;28;20036;-73
2024/01/01 08:27:28;;;;;;;16.15;5.57;;;;;;;;;;5004969;28;20778;-73
2024/01/01 08:29:55;;;;;;;18.20;5.95;;;;;;;;;;5005037;28;20022;-73
2024/01/01 08:32:22;;;;;;;16.88;5.40;;;;;;;;;;5005398;28;20041;-72
2024/01/01 08:34:50;;;;;;;18.38;5.95;;;;;;;;;;5005576;28;20079;-73
2024/01/01 08:37:16;;;;;;;15.63;5.97;;;;;;;;;;5011854;28;20037;-73
2024/01/01 08:39:44;;;;;;;18.77;5.53;;;;;;;;;;5002659;28;20028;-73
2024/01/01 08:42:11;;;;;;;18.48;6.10;;;;;;;;;;5007024;28;20484;-73
2024/01/01 08:44:39;;;;;;;16.05;5.28;;;;;;;;;;5004989;28;20111;-73
2024/01/01 08:47:07;;;;;;;16.10;5.18;;;;;;;;;;5008141;28;20064;-73
2024/01/01 08:49:34;;;;;;;16.92;5.63;;;;;;;;;;5010471;28;20493;-73
2024/01/01 08:52:01;;;;;;;20.70;6.28;;;;;;;;;;5009798;28;20107;-72
2024/01/01 08:54:29;;;;;;;14.93;5.97;;;;;;;;;;5011211;28;20041;-72
2024/01/01 08:56:56;;;;;;;19.70;7.57;;;;;;;;;;5004623;28;20724;-72
2024/01/01 08:59:23;;;;;;;19.85;7.95;;;;;;;;;;5000828;28;20026;-74
2024/01/01 09:01:51;;;;;;;21.33;7.82;;;;;;;;;;5005934;28;20453;-74
2024/01/01 09:04:18;;;;;;;23.95;8.45;;;;;;;;;;5004573;28;20038;-73
2024/01/01 09:06:47;;;;;;;21.00;8.25;;;;;;;;;;5005515;28;20528;-71
2024/01/01 09:09:14;;;;;;;18.58;7.45;;;;;;;;;;5002802;28;20025;-74
2024/01/01 09:11:43;;;;;;;22.27;8.13;;;;;;;;;;5003774;28;20061;-73
2024/01/01 09:14:11;;;;;;;20.10;8.98;;;;;;;;;;5006599;28;20028;-73
2024/01/01 09:16:38;;;;;;;21.58;9.23;;;;;;;;;;5004744;28;20084;-71
2024/01/01 09:19:06;;;;;;;20.85;9.35;;;;;;;;;;5008928;28;20048;-72
2024/01/01 09:21:33;;;;;;;19.45;9.27;;;;;;;;;;5007477;28;20155;-72
2024/01/01 09:24:01;;;;;;;21.65;9.75;;;;;;;;;;5005955;28;20026;-73
2024/01/01 09:26:31;;;;;;;25.23;10.48;;;;;;;;;;5006342;28;20026;-73
2024/01/01 09:28:58;;;;;;;19.25;8.77;;;;;;;;;;5002330;28;20022;-72
2024/01/01 09:31:26;;;;;;;23.45;8.88;;;;;;;;;;5007297;28;20124;-72
2024/01/01 09:33:54;;;;;;;21.90;10.25;;;;;;;;;;5007643;28;20845;-73
2024/01/01 09:36:22;;;;;;;22.08;11.68;;;;;;;;;;5009246;28;20555;-74
2024/01/01 09:38:48;;;;;;;23.35;11.20;;;;;;;;;;5008445;28;20124;-73
2024/01/01 09:41:16;;;;;;;19.17;8.73;;;;;;;;;;5006448;28;20051;-73
2024/01/01 09:43:44;;;;;;;16.23;6.22;;;;;;;;;;5002359;28;20064;-72
2024/01/01 09:46:14;;;;;;;16.92;5.88;;;;;;;;;;5009373;28;20120;-72
2024/01/01 09:48:42;;;;;;;15.63;6.05;;;;;;;;;;5006957;28;20025;-72
2024/01/01 09:51:09;;;;;;;27.48;6.85;;;;;;;;;;5006955;28;20117;-72
2024/01/01 09:53:38;;;;;;;15.93;4.75;;;;;;;;;;5011348;28;20114;-72
2024/01/01 09:56:05;;;;;;;14.20;4.35;;;;;;;;;;5004425;28;20033;-72
2024/01/01 09:58:45;;;;;;;13.32;4.40;;;;;;;;;;5011470;28;20040;-72
2024/01/01 10:01:15;;;;;;;11.70;3.92;;;;;;;;;;5001270;28;20041;-72
2024/01/01 10:03:43;;;;;;;11.93;3.40;;;;;;;;;;5004949;28;20022;-73
2024/01/01 10:06:11;;;;;;;11.27;3.40;;;;;;;;;;5012513;28;20068;-73
2024/01/01 10:08:39;;;;;;;14.95;4.82;;;;;;;;;;5005730;28;20087;-74
2024/01/01 10:11:17;;;;;;;12.52;4.15;;;;;;;;;;5011071;28;20034;-75
2024/01/01 10:13:45;;;;;;;12.93;3.95;;;;;;;;;;5011238;28;20032;-74
2024/01/01 10:16:24;;;;;;;14.52;3.88;;;;;;;;;;5011235;28;20030;-74
2024/01/01 10:19:00;;;;;;;12.98;4.70;;;;;;;;;;5031812;28;20033;-73
2024/01/01 10:21:28;;;;;;;10.80;3.93;;;;;;;;;;5007886;28;20037;-74
2024/01/01 10:23:56;;;;;;;12.65;3.72;;;;;;;;;;5006037;28;20026;-73
2024/01/01 10:26:24;;;;;;;12.55;4.03;;;;;;;;;;5008928;28;20032;-73
2024/01/01 10:28:53;;;;;;;14.15;4.00;;;;;;;;;;5003017;28;20116;-73
2024/01/01 10:31:21;;;;;;;12.50;4.00;;;;;;;;;;5008070;28;20025;-73
2024/01/01 10:33:49;;;;;;;12.07;3.33;;;;;;;;;;5002278;28;20037;-76
2024/01/01 10:36:18;;;;;;;15.85;4.05;;;;;;;;;;5007845;28;20026;-74
2024/01/01 10:38:48;;;;;;;13.02;3.80;;;;;;;;;;5007944;28;20032;-73
2024/01/01 10:41:17;;;;;;;11.60;3.65;;;;;;;;;;5009982;28;20140;-74
2024/01/01 10:43:44;;;;;;;11.32;4.15;;;;;;;;;;5010238;28;20045;-72
2024/01/01 10:46:13;;;;;;;16.02;7.78;;;;;;;;;;5029439;28;20051;-72
2024/01/01 10:48:43;;;;;;;15.55;4.45;;;;;;;;;;5041289;28;20133;-72
2024/01/01 10:51:18;;;;;;;12.85;4.13;;;;;;;;;;5023112;28;20038;-73
2024/01/01 10:54:04;;;;;;;13.57;3.88;;;;;;;;;;5022331;28;20029;-73
2024/01/01 10:57:08;;;;;;;12.82;5.10;;;;;;;;;;5028300;28;20878;-74
2024/01/01 10:59:47;;;;;;;12.32;4.28;;;;;;;;;;5021971;28;20051;-73
2024/01/01 11:02:14;;;;;;;13.40;3.83;;;;;;;;;;5023341;28;20041;-75
2024/01/01 11:04:41;;;;;;;12.75;3.83;;;;;;;;;;5019849;28;20110;-73
2024/01/01 11:07:09;;;;;;;13.65;5.72;;;;;;;;;;5025835;28;20028;-72
2024/01/01 11:09:37;;;;;;;12.75;4.70;;;;;;;;;;5025442;28;20029;-75
2024/01/01 11:12:05;;;;;;;15.43;5.35;;;;;;;;;;5026490;28;20036;-74
2024/01/01 11:14:34;;;;;;;12.95;5.28;;;;;;;;;;5024991;28;20025;-74
2024/01/01 11:17:09;;;;;;;15.18;5.05;;;;;;;;;;5023923;28;20049;-73
2024/01/01 11:19:48;;;;;;;14.48;4.20;;;;;;;;;;5047914;28;20029;-73
2024/01/01 11:22:39;;;;;;;15.35;6.05;;;;;;;;;;5032358;28;20033;-73
2024/01/01 11:25:06;;;;;;;20.85;13.40;;;;;;;;;;5023257;28;20021;-73
2024/01/01 11:27:47;;;;;;;17.77;7.57;;;;;;;;;;5029285;28;20036;-74
2024/01/01 11:30:16;;;;;;;30.30;22.27;;;;;;;;;;5026398;28;20013;-73
2024/01/01 11:32:43;;;;;;;16.90;8.98;;;;;;;;;;5024588;28;20033;-74
2024/01/01 11:35:14;;;;;;;16.30;6.80;;;;;;;;;;5026463;28;20051;-76
2024/01/01 11:37:42;;;;;;;14.13;5.15;;;;;;;;;;5024830;28;20032;-72
2024/01/01 11:40:11;;;;;;;16.67;6.05;;;;;;;;;;5027579;28;20459;-72
2024/01/01 11:42:39;;;;;;;13.50;4.63;;;;;;;;;;5027675;28;20044;-74
2024/01/01 11:45:08;;;;;;;13.00;4.18;;;;;;;;;;5026054;28;20056;-74
2024/01/01 11:47:36;;;;;;;11.13;3.72;;;;;;;;;;5024458;28;20424;-74
2024/01/01 11:50:05;;;;;;;13.27;3.67;;;;;;;;;;5026399;28;20166;-73
2024/01/01 11:52:32;;;;;;;19.88;10.45;;;;;;;;;;5023848;28;20033;-74
2024/01/01 11:54:59;;;;;;;21.42;10.68;;;;;;;;;;5017158;28;20021;-74
2024/01/01 11:57:26;;;;;;;21.67;13.30;;;;;;;;;;5031660;28;20106;-75
2024/01/01 11:59:55;;;;;;;13.68;5.25;;;;;;;;;;5017577;28;20039;-73
2024/01/01 12:02:23;;;;;;;22.00;13.75;;;;;;;;;;5021696;28;20106;-74
2024/01/01 12:04:55;;;;;;;13.57;5.82;;;;;;;;;;5014902;28;20048;-72
2024/01/01 12:07:35;;;;;;;15.13;5.15;;;;;;;;;;5018933;28;20484;-75
2024/01/01 12:10:13;;;;;;;14.75;6.00;;;;;;;;;;5016534;28;20040;-74
2024/01/01 12:12:42;;;;;;;12.20;5.55;;;;;;;;;;5014209;28;20136;-73
2024/01/01 12:15:19;;;;;;;14.90;4.10;;;;;;;;;;5030220;28;20037;-72
2024/01/01 12:17:46;;;;;;;;;;;;;;;;;;5015801;28;20100;-74
2024/01/01 12:20:18;;;;;;;15.65;4.80;;;;;;;;;;5019618;28;19920;-73
2024/01/01 12:22:45;;;;;;;12.82;4.45;;;;;;;;;;5011580;28;20735;-73
2024/01/01 12:25:20;;;;;;;12.55;4.32;;;;;;;;;;5014860;28;20093;-73
2024/01/01 12:28:05;;;;;;;12.90;4.53;;;;;;;;;;5013106;28;20044;-74
2024/01/01 12:30:33;;;;;;;12.85;3.80;;;;;;;;;;5029328;28;20060;-74
2024/01/01 12:33:00;;;;;;;120.10;107.43;;;;;;;;;;5011832;28;20083;-72
2024/01/01 12:35:28;;;;;;;70.03;58.05;;;;;;;;;;5013753;28;20041;-74
2024/01/01 12:37:56;;;;;;;33.53;26.08;;;;;;;;;;5016078;28;20033;-73
2024/01/01 12:40:29;;;;;;;33.67;24.33;;;;;;;;;;5015357;28;20049;-73
2024/01/01 12:42:57;;;;;;;21.25;15.00;;;;;;;;;;5014093;28;20163;-73
2024/01/01 12:45:25;;;;;;;49.78;39.50;;;;;;;;;;5017338;28;20025;-72
2024/01/01 12:47:53;;;;;;;27.85;19.15;;;;;;;;;;5025971;28;20033;-73
2024/01/01 12:50:21;;;;;;;22.75;11.10;;;;;;;;;;5016785;28;20021;-73
2024/01/01 12:52:48;;;;;;;24.55;14.73;;;;;;;;;;5013045;28;20112;-75
2024/01/01 12:55:16;;;;;;;22.80;10.55;;;;;;;;;;5018952;28;20025;-72
2024/01/01 12:57:43;;;;;;;21.42;9.98;;;;;;;;;;5012506;28;20447;-71
2024/01/01 13:00:11;;;;;;;21.38;11.43;;;;;;;;;;5013030;28;20198;-72
2024/01/01 13:02:39;;;;;;;14.32;6.18;;;;;;;;;;5026592;28;20702;-73
2024/01/01 13:05:05;;;;;;;49.97;33.10;;;;;;;;;;5016278;28;20029;-73
2024/01/01 13:07:33;;;;;;;25.70;12.82;;;;;;;;;;5014290;28;20018;-74
2024/01/01 13:10:00;;;;;;;26.50;17.20;;;;;;;;;;5011207;28;20034;-74
2024/01/01 13:12:28;;;;;;;27.05;21.65;;;;;;;;;;5016627;28;20103;-73
2024/01/01 13:14:57;;;;;;;16.83;8.05;;;;;;;;;;5027292;28;20048;-73
2024/01/01 13:17:25;;;;;;;17.45;8.07;;;;;;;;;;5016062;28;20049;-74
2024/01/01 13:19:52;;;;;;;14.63;5.45;;;;;;;;;;5010490;28;20029;-73
2024/01/01 13:22:20;;;;;;;16.10;4.85;;;;;;;;;;5015741;28;20037;-74
2024/01/01 13:24:48;;;;;;;15.60;4.05;;;;;;;;;;5012990;28;20685;-74
2024/01/01 13:27:19;;;;;;;14.35;4.75;;;;;;;;;;5010613;28;20026;-74
2024/01/01 13:29:46;;;;;;;14.65;5.65;;;;;;;;;;5029904;28;20041;-74
2024/01/01 13:32:14;;;;;;;17.67;6.22;;;;;;;;;;5046681;28;20037;-74
2024/01/01 13:34:41;;;;;;;16.90;8.57;;;;;;;;;;5012275;28;20026;-74
2024/01/01 13:37:09;;;;;;;13.13;5.53;;;;;;;;;;5017494;28;20024;-74
2024/01/01 13:39:37;;;;;;;13.65;4.90;;;;;;;;;;5016598;28;20036;-74
2024/01/01 13:42:03;;;;;;;15.02;5.88;;;;;;;;;;5018512;28;20033;-72
2024/01/01 13:44:32;;;;;;;16.25;6.60;;;;;;;;;;5027570;28;20148;-73
2024/01/01 13:46:59;;;;;;;23.10;10.80;;;;;;;;;;5010359;28;20059;-73
2024/01/01 13:49:28;;;;;;;32.40;23.25;;;;;;;;;;5015317;28;20025;-71
2024/01/01 13:51:56;;;;;;;18.92;8.02;;;;;;;;;;5015234;28;20037;-73
2024/01/01 13:54:24;;;;;;;15.48;7.03;;;;;;;;;;5014059;28;20044;-74
2024/01/01 13:56:51;;;;;;;24.42;15.85;;;;;;;;;;5011288;28;20029;-74
2024/01/01 13:59:17;;;;;;;16.98;7.78;;;;;;;;;;5016801;28;20021;-73
2024/01/01 14:01:44;;;;;;;21.10;11.45;;;;;;;;;;5016997;28;20135;-73
2024/01/01 14:04:12;;;;;;;18.25;6.95;;;;;;;;;;5020519;28;20030;-73
2024/01/01 14:06:41;;;;;;;18.55;7.97;;;;;;;;;;5014191;28;20029;-73
2024/01/01 14:09:09;;;;;;;19.02;8.13;;;;;;;;;;5018066;28;20052;-73
2024/01/01 14:11:45;;;;;;;24.85;13.05;;;;;;;;;;5020417;28;20048;-72
2024/01/01 14:14:12;;;;;;;14.20;6.70;;;;;;;;;;5018827;28;20037;-73
2024/01/01 14:16:43;;;;;;;16.95;6.13;;;;;;;;;;5016748;28;20840;-73
2024/01/01 14:19:10;;;;;;;16.02;7.28;;;;;;;;;;5023667;28;20067;-74
2024/01/01 14:21:39;;;;;;;15.38;5.85;;;;;;;;;;5024645;28;20029;-73
2024/01/01 14:24:07;;;;;;;16.30;6.07;;;;;;;;;;5023584;28;20107;-72
2024/01/01 14:26:34;;;;;;;16.77;5.18;;;;;;;;;;5017824;28;20513;-75
2024/01/01 14:29:02;;;;;;;14.40;4.97;;;;;;;;;;5017558;28;20071;-75
2024/01/01 14:31:29;;;;;;;15.90;5.13;;;;;;;;;;5023496;28;20083;-74
2024/01/01 14:33:57;;;;;;;14.15;5.45;;;;;;;;;;5015276;28;20043;-75
2024/01/01 14:36:25;;;;;;;15.02;4.40;;;;;;;;;;5018234;28;20037;-75